createdAt,value
2023-03-10T00:01:23.077Z,8.37
2023-03-10T00:03:50.317Z,8.32
2023-03-10T00:06:20.034Z,8.33
2023-03-10T00:08:47.306Z,8.31
2023-03-10T00:11:14.141Z,8.30
2023-03-10T00:13:40.652Z,8.32
2023-03-10T00:16:08.252Z,8.37
2023-03-10T00:18:34.966Z,8.42
2023-03-10T00:21:01.511Z,8.41
2023-03-10T00:23:28.008Z,8.45
2023-03-10T00:25:59.781Z,8.47
2023-03-10T00:28:27.737Z,8.52
2023-03-10T00:31:05.687Z,8.51
2023-03-10T00:33:33.701Z,8.45
2023-03-10T00:36:15.694Z,8.28
2023-03-10T00:38:43.551Z,8.18
2023-03-10T00:41:21.877Z,8.09
2023-03-10T00:43:49.082Z,7.97
2023-03-10T00:46:16.109Z,7.89
2023-03-10T00:48:43.525Z,7.85
2023-03-10T00:51:10.203Z,7.78
2023-03-10T00:53:40.968Z,7.80
2023-03-10T00:56:19.708Z,7.83
2023-03-10T00:58:47.696Z,7.93
2023-03-10T01:01:17.365Z,8.07
2023-03-10T01:03:44.754Z,8.15
2023-03-10T01:06:12.833Z,8.35
2023-03-10T01:08:39.876Z,8.44
2023-03-10T01:11:06.817Z,8.52
2023-03-10T01:13:33.652Z,8.53
2023-03-10T01:16:00.345Z,8.56
2023-03-10T01:18:26.871Z,8.61
2023-03-10T01:20:53.492Z,8.65
2023-03-10T01:23:22.432Z,8.66
2023-03-10T01:25:49.125Z,8.64
2023-03-10T01:28:16.728Z,8.66
2023-03-10T01:30:43.968Z,8.66
2023-03-10T01:33:12.021Z,8.67
2023-03-10T01:35:39.147Z,8.64
2023-03-10T01:38:06.759Z,8.54
2023-03-10T01:40:33.534Z,8.54
2023-03-10T01:43:33.042Z,8.62
2023-03-10T01:46:02.569Z,8.64
2023-03-10T01:48:34.142Z,8.66
2023-03-10T01:51:01.227Z,8.64
2023-03-10T01:53:29.516Z,8.69
2023-03-10T01:56:02.937Z,8.67
2023-03-10T01:58:37.837Z,8.70
2023-03-10T02:01:05.574Z,8.72
2023-03-10T02:03:41.065Z,8.71
2023-03-10T02:06:13.924Z,8.71
2023-03-10T02:08:46.246Z,8.74
2023-03-10T02:11:14.898Z,8.78
2023-03-10T02:13:41.533Z,8.82
2023-03-10T02:16:08.295Z,8.93
2023-03-10T02:18:35.024Z,8.97
2023-03-10T02:21:27.993Z,8.98
2023-03-10T02:24:22.037Z,8.97
2023-03-10T02:27:10.687Z,9.03
2023-03-10T02:30:00.035Z,9.03
2023-03-10T02:32:30.748Z,9.06
2023-03-10T02:34:57.642Z,9.03
2023-03-10T02:37:30.740Z,8.98
2023-03-10T02:39:58.001Z,8.98
2023-03-10T02:42:36.512Z,8.97
2023-03-10T02:45:04.219Z,8.94
2023-03-10T02:47:30.800Z,8.91
2023-03-10T02:49:57.528Z,8.90
2023-03-10T02:52:28.621Z,8.91
2023-03-10T02:54:55.193Z,8.91
2023-03-10T02:57:21.788Z,8.89
2023-03-10T02:59:48.288Z,8.92
2023-03-10T03:02:14.796Z,8.93
2023-03-10T03:04:41.315Z,8.90
2023-03-10T03:07:08.023Z,8.84
2023-03-10T03:09:35.414Z,8.84
2023-03-10T03:12:02.008Z,8.87
2023-03-10T03:14:28.538Z,8.84
2023-03-10T03:16:55.263Z,8.82
2023-03-10T03:19:22.126Z,8.82
2023-03-10T03:21:50.097Z,8.79
2023-03-10T03:24:18.609Z,8.74
2023-03-10T03:26:45.238Z,8.72
2023-03-10T03:29:12.149Z,8.73
2023-03-10T03:31:38.988Z,8.70
2023-03-10T03:34:05.801Z,8.66
2023-03-10T03:36:32.456Z,8.60
2023-03-10T03:38:58.933Z,8.54
2023-03-10T03:41:25.460Z,8.49
2023-03-10T03:43:52.002Z,8.45
2023-03-10T03:46:18.558Z,8.43
2023-03-10T03:48:45.087Z,8.39
2023-03-10T03:51:11.593Z,8.35
2023-03-10T03:53:38.034Z,8.33
2023-03-10T03:56:04.923Z,8.30
2023-03-10T03:58:31.408Z,8.27
2023-03-10T04:00:57.954Z,8.25
2023-03-10T04:03:24.580Z,8.17
2023-03-10T04:05:51.348Z,8.20
2023-03-10T04:08:17.954Z,8.18
2023-03-10T04:10:50.902Z,8.17
2023-03-10T04:13:17.626Z,8.16
2023-03-10T04:15:44.110Z,8.18
2023-03-10T04:18:10.767Z,8.19
2023-03-10T04:20:37.756Z,8.18
2023-03-10T04:23:04.597Z,8.16
2023-03-10T04:25:31.277Z,8.16
2023-03-10T04:27:58.092Z,8.12
2023-03-10T04:30:29.477Z,8.13
2023-03-10T04:33:00.800Z,8.11
2023-03-10T04:35:27.678Z,8.08
2023-03-10T04:37:54.375Z,8.07
2023-03-10T04:40:21.524Z,8.05
2023-03-10T04:42:48.093Z,8.04
2023-03-10T04:45:14.615Z,8.01
2023-03-10T04:47:41.340Z,7.97
2023-03-10T04:50:10.144Z,7.92
2023-03-10T04:52:36.719Z,7.84
2023-03-10T04:55:03.713Z,7.82
2023-03-10T04:57:30.245Z,7.76
2023-03-10T04:59:56.897Z,7.74
2023-03-10T05:02:23.421Z,7.74
2023-03-10T05:04:50.070Z,7.67
2023-03-10T05:07:16.641Z,7.73
2023-03-10T05:09:43.157Z,7.73
2023-03-10T05:12:10.328Z,7.79
2023-03-10T05:14:37.716Z,7.82
2023-03-10T05:17:04.346Z,7.79
2023-03-10T05:19:30.846Z,7.81
2023-03-10T05:21:57.358Z,7.86
2023-03-10T05:24:23.913Z,7.86
2023-03-10T05:26:50.658Z,7.89
2023-03-10T05:29:17.191Z,7.91
2023-03-10T05:31:43.794Z,7.90
2023-03-10T05:34:10.448Z,7.92
2023-03-10T05:36:37.141Z,7.92
2023-03-10T05:39:05.875Z,7.97
2023-03-10T05:41:33.041Z,7.99
2023-03-10T05:43:59.580Z,8.00
2023-03-10T05:46:26.647Z,7.98
2023-03-10T05:48:53.671Z,7.97
2023-03-10T05:51:20.624Z,7.99
2023-03-10T05:53:47.272Z,7.99
2023-03-10T05:56:18.544Z,8.01
2023-03-10T05:58:46.616Z,8.07
2023-03-10T06:01:14.035Z,8.07
2023-03-10T06:03:40.821Z,8.04
2023-03-10T06:06:07.910Z,8.08
2023-03-10T06:08:35.260Z,8.09
2023-03-10T06:11:01.852Z,8.11
2023-03-10T06:13:28.385Z,8.13
2023-03-10T06:15:58.432Z,8.16
2023-03-10T06:18:25.353Z,8.20
2023-03-10T06:20:53.644Z,8.24
2023-03-10T06:23:21.175Z,8.26
2023-03-10T06:26:06.947Z,8.30
2023-03-10T06:28:36.786Z,8.29
2023-03-10T06:31:07.475Z,8.28
2023-03-10T06:33:35.533Z,8.31
2023-03-10T06:36:02.529Z,8.28
2023-03-10T06:38:30.453Z,8.27
2023-03-10T06:40:57.731Z,8.26
2023-03-10T06:43:24.484Z,8.23
2023-03-10T06:45:51.143Z,8.22
2023-03-10T06:48:17.878Z,8.20
2023-03-10T06:50:48.086Z,8.21
2023-03-10T06:53:16.993Z,8.22
2023-03-10T06:55:43.749Z,8.22
2023-03-10T06:58:10.481Z,8.25
2023-03-10T07:00:39.065Z,8.27
2023-03-10T07:03:05.953Z,8.26
2023-03-10T07:05:32.538Z,8.28
2023-03-10T07:07:59.308Z,8.29
2023-03-10T07:10:25.871Z,8.30
2023-03-10T07:12:55.351Z,8.34
2023-03-10T07:15:26.356Z,8.32
2023-03-10T07:17:56.131Z,8.28
2023-03-10T07:20:24.435Z,8.29
2023-03-10T07:22:51.366Z,8.29
2023-03-10T07:30:57.715Z,8.17
2023-03-10T07:33:24.377Z,8.17
2023-03-10T07:35:50.948Z,8.14
2023-03-10T07:38:17.749Z,8.14
2023-03-10T07:40:44.266Z,8.15
2023-03-10T07:43:10.867Z,8.16
2023-03-10T07:45:38.488Z,8.23
2023-03-10T07:48:05.557Z,8.26
2023-03-10T07:50:32.076Z,8.29
2023-03-10T07:52:58.569Z,8.26
2023-03-10T07:55:25.148Z,8.29
2023-03-10T07:57:51.857Z,8.27
2023-03-10T08:00:18.637Z,8.30
2023-03-10T08:02:45.199Z,8.30
2023-03-10T08:05:12.251Z,8.29
2023-03-10T08:07:39.130Z,8.25
2023-03-10T08:10:06.463Z,8.27
2023-03-10T08:12:33.676Z,8.21
2023-03-10T08:15:00.436Z,8.20
2023-03-10T08:17:31.018Z,8.20
2023-03-10T08:19:58.825Z,8.16
2023-03-10T08:22:26.130Z,8.15
2023-03-10T08:24:52.829Z,8.18
2023-03-10T08:27:19.532Z,8.19
2023-03-10T08:29:46.163Z,8.22
2023-03-10T08:32:12.748Z,8.23
2023-03-10T08:34:39.839Z,8.28
2023-03-10T08:37:06.722Z,8.29
2023-03-10T08:39:33.357Z,8.30
2023-03-10T08:42:00.110Z,8.30
2023-03-10T08:44:26.973Z,8.32
2023-03-10T08:46:53.666Z,8.38
2023-03-10T08:49:21.788Z,8.46
2023-03-10T08:51:49.357Z,8.48
2023-03-10T08:54:18.618Z,8.49
2023-03-10T08:56:45.137Z,8.46
2023-03-10T08:59:11.936Z,8.45
2023-03-10T09:01:39.018Z,8.45
2023-03-10T09:04:08.360Z,8.44
2023-03-10T09:06:35.905Z,8.48
2023-03-10T09:09:03.258Z,8.49
2023-03-10T09:11:33.466Z,8.53
2023-03-10T09:14:01.480Z,8.56
2023-03-10T09:16:28.899Z,8.58
2023-03-10T09:18:58.882Z,8.58
2023-03-10T09:21:26.098Z,8.61
2023-03-10T09:23:53.215Z,8.66
2023-03-10T09:26:20.823Z,8.70
2023-03-10T09:28:49.484Z,8.67
2023-03-10T09:31:23.520Z,8.76
2023-03-10T09:33:50.186Z,8.73
2023-03-10T09:36:21.126Z,8.75
2023-03-10T09:38:47.735Z,8.75
2023-03-10T09:41:35.201Z,8.83
2023-03-10T09:44:37.876Z,8.88
2023-03-10T09:47:10.853Z,8.92
2023-03-10T09:49:51.610Z,8.96
2023-03-10T09:52:22.422Z,8.94
2023-03-10T09:55:18.147Z,8.99
2023-03-10T09:57:48.065Z,9.02
2023-03-10T10:00:22.090Z,9.07
2023-03-10T10:02:56.318Z,9.14
2023-03-10T10:05:31.469Z,9.16
2023-03-10T10:08:01.042Z,9.19
2023-03-10T10:10:35.668Z,9.23
2023-03-10T10:13:17.512Z,9.26
2023-03-10T10:16:07.336Z,9.22
2023-03-10T10:19:14.074Z,9.24
2023-03-10T10:21:47.138Z,9.24
2023-03-10T10:24:14.594Z,9.27
2023-03-10T10:26:41.288Z,9.21
2023-03-10T10:29:22.342Z,9.24
2023-03-10T10:32:09.112Z,9.26
2023-03-10T10:34:38.236Z,9.25
2023-03-10T10:37:27.074Z,9.28
2023-03-10T10:39:55.878Z,9.22
2023-03-10T10:42:33.930Z,9.18
2023-03-10T10:45:04.024Z,9.15
2023-03-10T10:47:35.325Z,9.15
2023-03-10T10:50:18.150Z,9.01
2023-03-10T10:52:48.839Z,8.90
2023-03-10T10:55:31.802Z,8.82
2023-03-10T10:58:03.352Z,8.88
2023-03-10T11:00:37.123Z,8.87
2023-03-10T11:03:33.895Z,8.92
2023-03-10T11:06:01.297Z,8.81
2023-03-10T11:08:27.770Z,8.86
2023-03-10T11:11:02.956Z,8.86
2023-03-10T11:13:39.522Z,8.84
2023-03-10T11:16:44.435Z,8.84
2023-03-10T11:19:23.017Z,8.66
2023-03-10T11:21:54.730Z,8.60
2023-03-10T11:24:25.993Z,8.59
2023-03-10T11:27:07.863Z,8.75
2023-03-10T11:30:02.780Z,8.80
2023-03-10T11:32:41.376Z,8.76
2023-03-10T11:35:29.577Z,8.71
2023-03-10T11:38:37.881Z,8.57
2023-03-10T11:41:13.926Z,8.58
2023-03-10T11:44:08.503Z,8.61
2023-03-10T11:46:53.194Z,8.68
2023-03-10T11:49:24.367Z,8.70
2023-03-10T11:51:55.943Z,8.73
2023-03-10T11:54:48.248Z,8.62
2023-03-10T11:57:20.348Z,8.70
2023-03-10T11:59:59.761Z,8.57
2023-03-10T12:03:04.247Z,8.25
2023-03-10T12:05:39.539Z,7.95
2023-03-10T12:08:06.857Z,7.69
2023-03-10T12:10:37.337Z,7.29
2023-03-10T12:13:04.719Z,6.82
2023-03-10T12:15:39.856Z,6.66
2023-03-10T12:18:08.154Z,6.48
2023-03-10T12:20:35.529Z,6.39
2023-03-10T12:23:11.442Z,6.23
2023-03-10T12:25:38.446Z,6.18
2023-03-10T12:28:17.354Z,6.15
2023-03-10T12:30:45.936Z,5.87
2023-03-10T12:33:30.921Z,5.70
2023-03-10T12:36:13.274Z,5.63
2023-03-10T12:38:58.747Z,5.55
2023-03-10T12:41:28.471Z,5.31
2023-03-10T12:44:36.875Z,5.18
2023-03-10T12:47:09.785Z,4.94
2023-03-10T12:49:44.481Z,4.66
2023-03-10T12:52:24.681Z,4.35
2023-03-10T12:55:12.750Z,4.31
2023-03-10T12:57:50.722Z,4.41
2023-03-10T13:00:35.468Z,4.31
2023-03-10T13:03:11.157Z,4.21
2023-03-10T13:05:41.479Z,3.92
2023-03-10T13:08:22.931Z,3.74
2023-03-10T13:10:55.557Z,3.60
2023-03-10T13:13:28.949Z,3.58
2023-03-10T13:16:07.456Z,3.50
2023-03-10T13:18:35.183Z,3.44
2023-03-10T13:21:01.815Z,3.37
2023-03-10T13:23:34.420Z,3.21
2023-03-10T13:26:09.363Z,3.21
2023-03-10T13:28:36.578Z,3.20
2023-03-10T13:31:14.603Z,3.22
2023-03-10T13:33:52.802Z,3.18
2023-03-10T13:36:37.277Z,3.22
2023-03-10T13:39:15.908Z,2.94
2023-03-10T13:41:48.165Z,2.99
2023-03-10T13:44:18.628Z,2.94
2023-03-10T13:46:54.026Z,2.98
2023-03-10T13:49:25.677Z,2.87
2023-03-10T13:52:00.720Z,2.78
2023-03-10T13:54:35.367Z,2.79
2023-03-10T13:57:15.808Z,2.83
2023-03-10T13:59:43.733Z,2.83
2023-03-10T14:02:27.071Z,2.81
2023-03-10T14:04:54.802Z,2.76
2023-03-10T14:07:24.223Z,2.78
2023-03-10T14:10:05.916Z,2.73
2023-03-10T14:12:47.257Z,2.61
2023-03-10T14:15:20.329Z,2.55
2023-03-10T14:18:06.755Z,2.38
2023-03-10T14:20:36.168Z,2.33
2023-03-10T14:23:26.470Z,2.37
2023-03-10T14:25:56.463Z,2.35
2023-03-10T14:28:33.664Z,2.34
2023-03-10T14:31:02.817Z,2.36
2023-03-10T14:33:29.474Z,2.46
2023-03-10T14:35:56.093Z,2.37
2023-03-10T14:38:22.833Z,2.31
2023-03-10T14:40:55.610Z,2.29
2023-03-10T14:43:25.572Z,2.35
2023-03-10T14:45:55.131Z,2.35
2023-03-10T14:48:25.480Z,2.23
2023-03-10T14:50:54.065Z,2.12
2023-03-10T14:53:27.024Z,2.19
2023-03-10T14:55:56.104Z,2.04
2023-03-10T14:58:31.513Z,2.01
2023-03-10T15:00:58.433Z,1.90
2023-03-10T15:03:25.286Z,2.05
2023-03-10T15:05:51.837Z,2.32
2023-03-10T15:08:21.289Z,2.41
2023-03-10T15:10:51.077Z,2.45
2023-03-10T15:13:20.152Z,2.32
2023-03-10T15:15:47.959Z,2.24
2023-03-10T15:18:17.467Z,2.09
2023-03-10T15:20:44.398Z,2.19
2023-03-10T15:23:14.538Z,2.17
2023-03-10T15:25:43.701Z,2.20
2023-03-10T15:28:12.690Z,2.19
2023-03-10T15:30:41.814Z,2.33
2023-03-10T15:33:08.531Z,2.47
2023-03-10T15:35:35.307Z,2.50
2023-03-10T15:38:02.487Z,2.71
2023-03-10T15:40:31.415Z,2.67
2023-03-10T15:42:59.843Z,2.65
2023-03-10T15:45:28.952Z,2.69
2023-03-10T15:47:56.124Z,2.52
2023-03-10T15:50:23.654Z,2.66
2023-03-10T15:52:56.139Z,2.68
2023-03-10T15:55:23.859Z,2.80
2023-03-10T15:57:50.641Z,2.80
2023-03-10T16:00:19.189Z,2.78
2023-03-10T16:02:46.840Z,2.80
2023-03-10T16:05:13.976Z,2.68
2023-03-10T16:07:40.795Z,2.54
2023-03-10T16:10:10.635Z,2.51
2023-03-10T16:12:37.175Z,2.45
2023-03-10T16:15:04.173Z,2.44
2023-03-10T16:17:33.482Z,2.41
2023-03-10T16:20:02.245Z,2.33
2023-03-10T16:22:28.948Z,2.25
2023-03-10T16:24:55.711Z,2.28
2023-03-10T16:27:22.324Z,2.30
2023-03-10T16:29:48.931Z,2.28
2023-03-10T16:32:17.576Z,2.29
2023-03-10T16:34:44.193Z,2.16
2023-03-10T16:37:10.865Z,2.00
2023-03-10T16:39:37.410Z,1.91
2023-03-10T16:42:04.094Z,1.89
2023-03-10T16:44:30.609Z,1.80
2023-03-10T16:46:57.349Z,1.74
2023-03-10T16:49:23.908Z,1.73
2023-03-10T16:51:50.401Z,1.68
2023-03-10T16:54:19.538Z,1.69
2023-03-10T16:56:52.138Z,1.46
2023-03-10T16:59:26.769Z,1.41
2023-03-10T17:01:53.727Z,1.42
2023-03-10T17:04:20.477Z,1.41
2023-03-10T17:06:47.852Z,1.31
2023-03-10T17:09:16.341Z,1.28
2023-03-10T17:11:49.704Z,1.25
2023-03-10T17:14:16.979Z,1.14
2023-03-10T17:16:45.268Z,1.09
2023-03-10T17:19:17.922Z,1.05
2023-03-10T17:21:49.879Z,0.99
2023-03-10T17:24:18.144Z,0.94
2023-03-10T17:26:45.779Z,1.00
2023-03-10T17:29:12.957Z,1.04
2023-03-10T17:31:39.718Z,1.03
2023-03-10T17:34:10.424Z,1.09
2023-03-10T17:36:36.986Z,1.13
2023-03-10T17:39:05.238Z,1.12
2023-03-10T17:41:34.281Z,1.13
2023-03-10T17:44:01.067Z,1.18
2023-03-10T17:46:29.692Z,1.19
2023-03-10T17:48:57.462Z,1.22
2023-03-10T17:51:27.526Z,1.23
2023-03-10T17:53:57.238Z,1.25
2023-03-10T17:56:24.562Z,1.29
2023-03-10T17:58:54.595Z,1.33
2023-03-10T18:01:27.427Z,1.37
2023-03-10T18:03:56.125Z,1.39
2023-03-10T18:06:29.389Z,1.35
2023-03-10T18:08:57.873Z,1.23
2023-03-10T18:16:33.779Z,0.96
2023-03-10T18:19:01.249Z,0.99
2023-03-10T18:21:28.651Z,1.12
2023-03-10T18:23:55.698Z,1.17
2023-03-10T18:26:27.542Z,1.26
2023-03-10T18:28:54.596Z,1.21
2023-03-10T18:31:30.581Z,1.23
2023-03-10T18:33:58.875Z,1.27
2023-03-10T18:36:26.666Z,1.35
2023-03-10T18:38:53.498Z,1.45
2023-03-10T18:41:25.566Z,1.61
2023-03-10T18:43:52.758Z,1.63
2023-03-10T18:46:19.946Z,1.65
2023-03-10T18:48:46.545Z,1.60
2023-03-10T18:51:16.422Z,1.55
2023-03-10T18:53:45.265Z,1.51
2023-03-10T18:56:11.849Z,1.47
2023-03-10T18:58:38.338Z,1.49
2023-03-10T19:01:11.613Z,1.48
2023-03-10T19:03:38.702Z,1.47
2023-03-10T19:06:05.996Z,1.52
2023-03-10T19:08:35.049Z,1.50
2023-03-10T19:11:02.111Z,1.50
2023-03-10T19:13:30.086Z,1.54
2023-03-10T19:15:58.939Z,1.39
2023-03-10T19:18:25.439Z,1.22
2023-03-10T19:21:00.349Z,1.35
2023-03-10T19:23:29.184Z,1.33
2023-03-10T19:25:57.500Z,1.30
2023-03-10T19:28:24.132Z,1.51
2023-03-10T19:30:50.814Z,1.46
2023-03-10T19:33:17.990Z,1.52
2023-03-10T19:35:49.907Z,1.56
2023-03-10T19:38:16.473Z,1.66
2023-03-10T19:40:46.580Z,1.68
2023-03-10T19:43:13.915Z,1.80
2023-03-10T19:45:40.545Z,1.93
2023-03-10T19:48:07.180Z,2.03
2023-03-10T19:50:33.696Z,2.15
2023-03-10T19:53:00.561Z,2.16
2023-03-10T19:55:30.282Z,2.19
2023-03-10T19:57:57.073Z,2.20
2023-03-10T20:00:30.897Z,2.22
2023-03-10T20:02:57.811Z,2.37
2023-03-10T20:05:26.899Z,2.31
2023-03-10T20:07:54.143Z,2.38
2023-03-10T20:10:25.143Z,2.35
2023-03-10T20:12:53.196Z,2.32
2023-03-10T20:15:22.679Z,2.21
2023-03-10T20:17:49.265Z,2.28
2023-03-10T20:20:20.071Z,2.27
2023-03-10T20:22:50.353Z,2.17
2023-03-10T20:25:20.341Z,2.11
2023-03-10T20:27:48.978Z,2.11
2023-03-10T20:30:17.583Z,1.99
2023-03-10T20:32:44.734Z,1.93
2023-03-10T20:35:13.143Z,1.88
2023-03-10T20:37:41.952Z,1.82
2023-03-10T20:40:13.659Z,1.75
2023-03-10T20:42:40.547Z,1.63
2023-03-10T20:45:08.672Z,1.54
2023-03-10T20:47:35.840Z,1.49
2023-03-10T20:50:03.953Z,1.38
2023-03-10T20:52:34.711Z,1.23
2023-03-10T20:55:02.167Z,1.08
2023-03-10T20:57:29.161Z,1.02
2023-03-10T20:59:55.977Z,1.02
2023-03-10T21:02:22.665Z,1.08
2023-03-10T21:04:49.466Z,1.17
2023-03-10T21:07:16.334Z,1.37
2023-03-10T21:09:43.656Z,1.58
2023-03-10T21:12:10.302Z,1.66
2023-03-10T21:14:36.925Z,1.68
2023-03-10T21:17:05.278Z,1.71
2023-03-10T21:19:31.921Z,1.60
2023-03-10T21:21:58.407Z,1.48
2023-03-10T21:24:24.939Z,1.46
2023-03-10T21:26:51.610Z,1.40
2023-03-10T21:29:18.141Z,1.37
2023-03-10T21:31:44.625Z,1.39
2023-03-10T21:34:11.338Z,1.52
2023-03-10T21:36:38.132Z,1.47
2023-03-10T21:39:05.405Z,1.47
2023-03-10T21:41:31.965Z,1.50
2023-03-10T21:43:59.106Z,1.39
2023-03-10T21:46:27.194Z,1.38
2023-03-10T21:48:53.998Z,1.43
2023-03-10T21:51:23.955Z,1.43
2023-03-10T21:53:53.605Z,1.54
2023-03-10T21:56:22.187Z,1.59
2023-03-10T21:58:49.222Z,1.65
2023-03-10T22:01:17.650Z,1.62
2023-03-10T22:03:44.478Z,1.61
2023-03-10T22:06:11.376Z,1.51
2023-03-10T22:08:38.664Z,1.37
2023-03-10T22:11:06.947Z,1.20
2023-03-10T22:13:34.793Z,0.98
2023-03-10T22:16:02.375Z,0.82
2023-03-10T22:18:29.064Z,0.74
2023-03-10T22:20:55.589Z,0.98
2023-03-10T22:23:22.259Z,1.13
2023-03-10T22:25:49.000Z,1.11
2023-03-10T22:28:15.841Z,1.16
2023-03-10T22:30:42.634Z,1.24
2023-03-10T22:33:09.311Z,1.24
2023-03-10T22:35:39.045Z,1.31
2023-03-10T22:38:06.162Z,1.35
2023-03-10T22:40:33.184Z,1.33
2023-03-10T22:42:59.849Z,1.34
2023-03-10T22:45:29.639Z,1.31
2023-03-10T22:47:58.772Z,1.45
2023-03-10T22:50:28.883Z,1.40
2023-03-10T22:52:55.796Z,1.48
2023-03-10T22:55:25.059Z,1.51
2023-03-10T22:57:52.618Z,1.48
2023-03-10T23:00:21.766Z,1.39
2023-03-10T23:02:50.016Z,1.37
2023-03-10T23:05:17.114Z,1.27
2023-03-10T23:07:43.857Z,1.20
2023-03-10T23:10:19.096Z,1.11
2023-03-10T23:12:46.008Z,0.96
2023-03-10T23:15:24.714Z,0.76
2023-03-10T23:17:52.552Z,0.60
2023-03-10T23:20:19.301Z,0.46
2023-03-10T23:22:47.138Z,0.27
2023-03-10T23:25:16.565Z,0.22
2023-03-10T23:27:43.109Z,0.14
2023-03-10T23:30:10.715Z,0.19
2023-03-10T23:32:37.912Z,0.27
2023-03-10T23:35:09.035Z,0.36
2023-03-10T23:37:36.833Z,0.57
2023-03-10T23:40:11.804Z,0.64
2023-03-10T23:42:38.967Z,0.67
2023-03-10T23:45:07.332Z,0.62
2023-03-10T23:47:34.914Z,0.58
2023-03-10T23:50:02.459Z,0.55
2023-03-10T23:52:29.005Z,0.52
2023-03-10T23:54:55.533Z,0.54
2023-03-10T23:57:22.161Z,0.51
2023-03-10T23:59:48.917Z,0.50
